sensor_id;sensor_type;location;lat;lon;timestamp;pressure;altitude;pressure_sealevel;temperature;humidity
21547;BME280;41275;51.912;4.388;2023-03-22T00:04:58;100874.81;;;16.18;49.43
21547;BME280;41275;51.912;4.388;2023-03-22T00:10:19;100867.31;;;16.05;50.10
21547;BME280;41275;51.912;4.388;2023-03-22T00:15:42;100867.59;;;16.04;50.11
21547;BME280;41275;51.912;4.388;2023-03-22T00:21:10;100855.84;;;16.15;50.02
21547;BME280;41275;51.912;4.388;2023-03-22T00:26:32;100829.72;;;16.17;50.06
21547;BME280;41275;51.912;4.388;2023-03-22T00:31:53;100821.44;;;16.18;49.90
21547;BME280;41275;51.912;4.388;2023-03-22T00:37:15;100825.97;;;16.18;50.12
21547;BME280;41275;51.912;4.388;2023-03-22T00:42:39;100816.13;;;16.24;49.64
21547;BME280;41275;51.912;4.388;2023-03-22T00:48:00;100805.19;;;16.35;49.51
21547;BME280;41275;51.912;4.388;2023-03-22T00:53:22;100788.63;;;16.43;49.53
21547;BME280;41275;51.912;4.388;2023-03-22T00:58:43;100776.88;;;16.50;48.91
21547;BME280;41275;51.912;4.388;2023-03-22T01:04:05;100766.47;;;16.53;49.45
21547;BME280;41275;51.912;4.388;2023-03-22T01:09:27;100764.88;;;16.52;48.90
21547;BME280;41275;51.912;4.388;2023-03-22T01:14:50;100744.28;;;16.53;49.02
21547;BME280;41275;51.912;4.388;2023-03-22T01:20:12;100734.66;;;16.62;48.94
21547;BME280;41275;51.912;4.388;2023-03-22T01:25:33;100718.91;;;16.65;48.93
21547;BME280;41275;51.912;4.388;2023-03-22T01:30:55;100708.75;;;16.67;48.94
21547;BME280;41275;51.912;4.388;2023-03-22T01:36:16;100706.91;;;16.73;48.51
21547;BME280;41275;51.912;4.388;2023-03-22T01:41:37;100698.06;;;16.73;48.86
21547;BME280;41275;51.912;4.388;2023-03-22T01:46:59;100701.28;;;16.80;48.62
21547;BME280;41275;51.912;4.388;2023-03-22T01:52:20;100688.97;;;16.74;48.72
21547;BME280;41275;51.912;4.388;2023-03-22T01:57:42;100686.31;;;16.79;49.04
21547;BME280;41275;51.912;4.388;2023-03-22T02:03:04;100679.09;;;16.79;49.10
21547;BME280;41275;51.912;4.388;2023-03-22T02:08:27;100667.63;;;16.79;48.97
21547;BME280;41275;51.912;4.388;2023-03-22T02:13:56;100660.13;;;16.81;49.56
21547;BME280;41275;51.912;4.388;2023-03-22T02:37:25;100658.41;;;17.05;50.63
21547;BME280;41275;51.912;4.388;2023-03-22T02:42:58;100643.22;;;17.06;50.48
21547;BME280;41275;51.912;4.388;2023-03-22T02:48:32;100650.16;;;17.07;50.55
21547;BME280;41275;51.912;4.388;2023-03-22T02:54:00;100631.44;;;17.07;50.34
21547;BME280;41275;51.912;4.388;2023-03-22T02:59:25;100622.63;;;17.06;50.36
21547;BME280;41275;51.912;4.388;2023-03-22T03:04:49;100623.69;;;17.00;50.01
21547;BME280;41275;51.912;4.388;2023-03-22T03:10:14;100609.56;;;16.95;50.12
21547;BME280;41275;51.912;4.388;2023-03-22T03:15:37;100619.47;;;16.94;50.31
21547;BME280;41275;51.912;4.388;2023-03-22T03:26:44;100605.03;;;16.90;50.46
21547;BME280;41275;51.912;4.388;2023-03-22T03:37:33;100598.13;;;16.79;50.59
21547;BME280;41275;51.912;4.388;2023-03-22T03:42:58;100594.09;;;16.81;50.90
21547;BME280;41275;51.912;4.388;2023-03-22T03:48:25;100598.66;;;16.86;51.02
21547;BME280;41275;51.912;4.388;2023-03-22T03:53:47;100610.38;;;16.85;51.24
21547;BME280;41275;51.912;4.388;2023-03-22T03:59:08;100608.25;;;16.82;50.82
21547;BME280;41275;51.912;4.388;2023-03-22T04:04:30;100590.09;;;16.84;51.03
21547;BME280;41275;51.912;4.388;2023-03-22T04:09:51;100600.00;;;16.78;51.00
21547;BME280;41275;51.912;4.388;2023-03-22T04:15:12;100593.03;;;16.72;51.10
21547;BME280;41275;51.912;4.388;2023-03-22T04:20:33;100588.22;;;16.69;51.16
21547;BME280;41275;51.912;4.388;2023-03-22T04:25:54;100586.41;;;16.59;50.97
21547;BME280;41275;51.912;4.388;2023-03-22T04:31:19;100577.59;;;16.59;51.20
21547;BME280;41275;51.912;4.388;2023-03-22T04:36:40;100575.44;;;16.61;51.07
21547;BME280;41275;51.912;4.388;2023-03-22T04:42:02;100565.84;;;16.60;50.70
21547;BME280;41275;51.912;4.388;2023-03-22T04:47:23;100567.16;;;16.62;50.41
21547;BME280;41275;51.912;4.388;2023-03-22T04:52:44;100571.41;;;16.74;50.54
21547;BME280;41275;51.912;4.388;2023-03-22T04:58:05;100567.94;;;16.78;49.83
21547;BME280;41275;51.912;4.388;2023-03-22T05:03:26;100557.47;;;16.87;49.84
21547;BME280;41275;51.912;4.388;2023-03-22T05:08:48;100555.81;;;16.96;49.48
21547;BME280;41275;51.912;4.388;2023-03-22T05:14:09;100549.97;;;16.94;49.23
21547;BME280;41275;51.912;4.388;2023-03-22T05:19:31;100552.34;;;16.96;49.52
21547;BME280;41275;51.912;4.388;2023-03-22T05:24:53;100551.28;;;16.97;48.81
21547;BME280;41275;51.912;4.388;2023-03-22T05:30:15;100545.91;;;16.97;48.72
21547;BME280;41275;51.912;4.388;2023-03-22T05:35:38;100536.81;;;16.98;48.56
21547;BME280;41275;51.912;4.388;2023-03-22T05:41:00;100520.28;;;16.96;48.20
21547;BME280;41275;51.912;4.388;2023-03-22T05:46:21;100515.19;;;16.99;48.11
21547;BME280;41275;51.912;4.388;2023-03-22T05:51:43;100529.63;;;16.93;48.22
21547;BME280;41275;51.912;4.388;2023-03-22T05:57:04;100530.97;;;16.96;48.33
21547;BME280;41275;51.912;4.388;2023-03-22T06:02:25;100533.59;;;17.01;47.99
21547;BME280;41275;51.912;4.388;2023-03-22T06:08:07;100527.16;;;17.07;47.82
21547;BME280;41275;51.912;4.388;2023-03-22T06:14:10;100518.59;;;17.05;48.05
21547;BME280;41275;51.912;4.388;2023-03-22T06:19:32;100516.22;;;17.03;48.07
21547;BME280;41275;51.912;4.388;2023-03-22T06:24:53;100526.63;;;17.05;48.14
21547;BME280;41275;51.912;4.388;2023-03-22T06:30:14;100524.75;;;17.10;48.23
21547;BME280;41275;51.912;4.388;2023-03-22T06:35:35;100528.47;;;17.14;48.13
21547;BME280;41275;51.912;4.388;2023-03-22T06:40:56;100516.13;;;17.18;47.74
21547;BME280;41275;51.912;4.388;2023-03-22T06:46:18;100513.41;;;17.24;47.79
21547;BME280;41275;51.912;4.388;2023-03-22T06:51:39;100524.66;;;17.26;48.06
21547;BME280;41275;51.912;4.388;2023-03-22T06:57:00;100524.59;;;17.31;47.67
21547;BME280;41275;51.912;4.388;2023-03-22T07:02:21;100511.47;;;17.34;47.64
21547;BME280;41275;51.912;4.388;2023-03-22T07:07:43;100519.94;;;17.47;47.73
21547;BME280;41275;51.912;4.388;2023-03-22T07:13:04;100522.53;;;17.57;47.53
21547;BME280;41275;51.912;4.388;2023-03-22T07:18:26;100514.41;;;17.67;47.28
21547;BME280;41275;51.912;4.388;2023-03-22T07:23:47;100522.66;;;17.76;47.28
21547;BME280;41275;51.912;4.388;2023-03-22T07:29:09;100516.78;;;17.74;46.81
21547;BME280;41275;51.912;4.388;2023-03-22T07:34:30;100522.91;;;17.79;46.99
21547;BME280;41275;51.912;4.388;2023-03-22T07:39:51;100532.19;;;17.92;46.85
21547;BME280;41275;51.912;4.388;2023-03-22T07:45:12;100520.41;;;17.88;46.84
21547;BME280;41275;51.912;4.388;2023-03-22T07:50:34;100525.44;;;17.95;47.11
21547;BME280;41275;51.912;4.388;2023-03-22T07:55:55;100522.88;;;17.84;47.26
21547;BME280;41275;51.912;4.388;2023-03-22T08:01:16;100524.28;;;17.72;47.40
21547;BME280;41275;51.912;4.388;2023-03-22T08:06:37;100535.59;;;17.63;47.56
21547;BME280;41275;51.912;4.388;2023-03-22T08:12:00;100527.16;;;17.46;48.29
21547;BME280;41275;51.912;4.388;2023-03-22T08:17:21;100544.00;;;17.47;48.29
21547;BME280;41275;51.912;4.388;2023-03-22T08:22:43;100537.56;;;17.48;48.73
21547;BME280;41275;51.912;4.388;2023-03-22T08:28:04;100517.63;;;17.35;48.85
21547;BME280;41275;51.912;4.388;2023-03-22T08:33:25;100519.06;;;17.22;49.28
21547;BME280;41275;51.912;4.388;2023-03-22T08:38:48;100519.09;;;17.12;49.43
21547;BME280;41275;51.912;4.388;2023-03-22T08:44:09;100522.88;;;17.11;50.03
21547;BME280;41275;51.912;4.388;2023-03-22T08:49:31;100519.97;;;17.02;50.22
21547;BME280;41275;51.912;4.388;2023-03-22T08:54:52;100509.53;;;17.01;50.40
21547;BME280;41275;51.912;4.388;2023-03-22T09:00:15;100523.13;;;17.09;50.45
21547;BME280;41275;51.912;4.388;2023-03-22T09:05:39;100507.38;;;17.08;50.64
21547;BME280;41275;51.912;4.388;2023-03-22T09:11:01;100521.22;;;17.15;50.56
21547;BME280;41275;51.912;4.388;2023-03-22T09:16:22;100510.50;;;17.20;50.75
21547;BME280;41275;51.912;4.388;2023-03-22T09:21:43;100518.25;;;17.22;50.58
21547;BME280;41275;51.912;4.388;2023-03-22T09:27:05;100511.56;;;17.19;50.78
21547;BME280;41275;51.912;4.388;2023-03-22T09:32:26;100516.94;;;17.19;50.72
21547;BME280;41275;51.912;4.388;2023-03-22T09:37:47;100513.97;;;17.21;50.89
21547;BME280;41275;51.912;4.388;2023-03-22T09:43:12;100523.59;;;17.22;50.83
21547;BME280;41275;51.912;4.388;2023-03-22T09:48:39;100504.41;;;17.14;51.10
21547;BME280;41275;51.912;4.388;2023-03-22T09:54:02;100510.03;;;17.08;50.89
21547;BME280;41275;51.912;4.388;2023-03-22T09:59:49;100519.41;;;17.05;51.28
21547;BME280;41275;51.912;4.388;2023-03-22T10:10:50;100527.38;;;17.15;51.68
21547;BME280;41275;51.912;4.388;2023-03-22T10:16:24;100510.00;;;17.13;51.64
21547;BME280;41275;51.912;4.388;2023-03-22T10:21:48;100501.13;;;17.23;51.69
21547;BME280;41275;51.912;4.388;2023-03-22T10:27:15;100482.91;;;17.25;51.83
21547;BME280;41275;51.912;4.388;2023-03-22T10:32:44;100488.69;;;17.42;51.77
21547;BME280;41275;51.912;4.388;2023-03-22T10:38:09;100483.72;;;17.59;51.49
21547;BME280;41275;51.912;4.388;2023-03-22T10:43:38;100487.34;;;17.74;51.45
21547;BME280;41275;51.912;4.388;2023-03-22T10:49:02;100467.41;;;17.90;50.94
21547;BME280;41275;51.912;4.388;2023-03-22T10:54:24;100471.56;;;18.25;50.27
21547;BME280;41275;51.912;4.388;2023-03-22T10:59:50;100456.91;;;18.42;50.19
21547;BME280;41275;51.912;4.388;2023-03-22T11:05:38;100468.50;;;18.56;49.46
21547;BME280;41275;51.912;4.388;2023-03-22T11:10:59;100496.34;;;18.60;49.25
21547;BME280;41275;51.912;4.388;2023-03-22T11:16:21;100505.28;;;18.50;49.24
21547;BME280;41275;51.912;4.388;2023-03-22T11:21:43;100526.56;;;18.42;49.10
21547;BME280;41275;51.912;4.388;2023-03-22T11:27:16;100529.63;;;18.30;49.10
21547;BME280;41275;51.912;4.388;2023-03-22T11:32:38;100527.06;;;18.20;49.06
21547;BME280;41275;51.912;4.388;2023-03-22T11:37:59;100520.16;;;18.13;49.28
21547;BME280;41275;51.912;4.388;2023-03-22T11:43:24;100517.44;;;18.19;49.25
21547;BME280;41275;51.912;4.388;2023-03-22T11:48:49;100521.19;;;18.18;49.14
21547;BME280;41275;51.912;4.388;2023-03-22T11:54:30;100520.63;;;18.21;49.26
21547;BME280;41275;51.912;4.388;2023-03-22T12:05:23;100530.19;;;18.27;49.15
21547;BME280;41275;51.912;4.388;2023-03-22T12:10:48;100512.47;;;18.31;49.15
21547;BME280;41275;51.912;4.388;2023-03-22T12:16:14;100510.47;;;18.42;49.05
21547;BME280;41275;51.912;4.388;2023-03-22T12:21:40;100502.91;;;18.49;49.04
21547;BME280;41275;51.912;4.388;2023-03-22T12:27:17;100495.47;;;18.64;48.93
21547;BME280;41275;51.912;4.388;2023-03-22T12:32:44;100498.13;;;18.64;48.87
21547;BME280;41275;51.912;4.388;2023-03-22T12:38:30;100495.38;;;18.70;48.63
21547;BME280;41275;51.912;4.388;2023-03-22T12:49:39;100484.66;;;18.75;48.57
21547;BME280;41275;51.912;4.388;2023-03-22T12:55:03;100501.75;;;18.79;48.75
21547;BME280;41275;51.912;4.388;2023-03-22T13:06:04;100496.66;;;18.96;48.59
21547;BME280;41275;51.912;4.388;2023-03-22T13:11:25;100505.44;;;19.02;48.35
21547;BME280;41275;51.912;4.388;2023-03-22T13:16:55;100507.47;;;18.91;48.46
21547;BME280;41275;51.912;4.388;2023-03-22T13:22:28;100488.28;;;19.03;48.28
21547;BME280;41275;51.912;4.388;2023-03-22T13:27:59;100482.38;;;19.01;48.81
21547;BME280;41275;51.912;4.388;2023-03-22T13:33:33;100486.81;;;19.10;48.68
21547;BME280;41275;51.912;4.388;2023-03-22T13:38:57;100485.56;;;19.22;48.34
21547;BME280;41275;51.912;4.388;2023-03-22T13:44:35;100490.22;;;19.16;48.53
21547;BME280;41275;51.912;4.388;2023-03-22T13:50:13;100478.69;;;19.16;48.66
21547;BME280;41275;51.912;4.388;2023-03-22T13:55:56;100468.97;;;19.20;48.56
21547;BME280;41275;51.912;4.388;2023-03-22T14:01:35;100460.25;;;19.28;48.82
21547;BME280;41275;51.912;4.388;2023-03-22T14:07:21;100455.97;;;19.27;48.82
21547;BME280;41275;51.912;4.388;2023-03-22T14:18:15;100446.84;;;19.28;48.58
21547;BME280;41275;51.912;4.388;2023-03-22T14:23:57;100443.66;;;19.26;48.79
21547;BME280;41275;51.912;4.388;2023-03-22T14:34:44;100437.09;;;19.32;48.84
21547;BME280;41275;51.912;4.388;2023-03-22T14:40:15;100436.63;;;19.30;49.01
21547;BME280;41275;51.912;4.388;2023-03-22T14:45:36;100434.19;;;19.15;49.36
21547;BME280;41275;51.912;4.388;2023-03-22T14:51:00;100438.53;;;19.10;49.87
21547;BME280;41275;51.912;4.388;2023-03-22T14:56:29;100441.72;;;18.94;50.02
21547;BME280;41275;51.912;4.388;2023-03-22T15:01:54;100433.13;;;18.78;50.51
21547;BME280;41275;51.912;4.388;2023-03-22T15:07:18;100426.94;;;18.58;51.16
21547;BME280;41275;51.912;4.388;2023-03-22T15:12:41;100425.91;;;18.54;51.83
21547;BME280;41275;51.912;4.388;2023-03-22T15:18:03;100421.16;;;18.51;52.09
21547;BME280;41275;51.912;4.388;2023-03-22T15:23:33;100419.59;;;18.45;52.48
21547;BME280;41275;51.912;4.388;2023-03-22T15:28:57;100412.88;;;18.29;52.89
21547;BME280;41275;51.912;4.388;2023-03-22T15:34:22;100406.03;;;18.18;53.17
21547;BME280;41275;51.912;4.388;2023-03-22T15:39:44;100414.94;;;18.13;53.71
21547;BME280;41275;51.912;4.388;2023-03-22T15:45:13;100405.13;;;18.03;53.88
21547;BME280;41275;51.912;4.388;2023-03-22T15:50:39;100408.72;;;17.94;54.40
21547;BME280;41275;51.912;4.388;2023-03-22T15:56:01;100396.78;;;17.86;54.87
21547;BME280;41275;51.912;4.388;2023-03-22T16:01:22;100385.50;;;17.89;54.85
21547;BME280;41275;51.912;4.388;2023-03-22T16:06:44;100371.75;;;17.96;55.10
21547;BME280;41275;51.912;4.388;2023-03-22T16:12:05;100362.25;;;18.08;55.17
21547;BME280;41275;51.912;4.388;2023-03-22T16:17:26;100367.06;;;18.06;55.30
21547;BME280;41275;51.912;4.388;2023-03-22T16:22:49;100353.56;;;18.17;55.16
21547;BME280;41275;51.912;4.388;2023-03-22T16:28:11;100349.78;;;18.18;55.44
21547;BME280;41275;51.912;4.388;2023-03-22T16:33:32;100359.50;;;18.13;55.38
21547;BME280;41275;51.912;4.388;2023-03-22T16:38:53;100362.41;;;18.17;55.47
21547;BME280;41275;51.912;4.388;2023-03-22T16:44:16;100346.56;;;18.21;55.37
21547;BME280;41275;51.912;4.388;2023-03-22T16:49:37;100360.44;;;18.23;55.27
21547;BME280;41275;51.912;4.388;2023-03-22T16:54:58;100363.34;;;18.26;55.67
21547;BME280;41275;51.912;4.388;2023-03-22T17:00:21;100367.03;;;18.30;55.54
21547;BME280;41275;51.912;4.388;2023-03-22T17:05:42;100366.47;;;18.33;55.49
21547;BME280;41275;51.912;4.388;2023-03-22T17:11:04;100371.25;;;18.36;55.35
21547;BME280;41275;51.912;4.388;2023-03-22T17:16:26;100381.16;;;18.36;55.36
21547;BME280;41275;51.912;4.388;2023-03-22T17:21:47;100390.00;;;18.36;55.09
21547;BME280;41275;51.912;4.388;2023-03-22T17:27:10;100392.09;;;18.39;55.05
21547;BME280;41275;51.912;4.388;2023-03-22T17:32:31;100382.88;;;18.27;55.23
21547;BME280;41275;51.912;4.388;2023-03-22T17:37:53;100391.84;;;18.17;55.21
21547;BME280;41275;51.912;4.388;2023-03-22T17:43:15;100375.25;;;18.15;55.59
21547;BME280;41275;51.912;4.388;2023-03-22T17:48:36;100376.66;;;18.12;55.60
21547;BME280;41275;51.912;4.388;2023-03-22T17:53:58;100376.88;;;18.16;55.53
21547;BME280;41275;51.912;4.388;2023-03-22T17:59:19;100364.22;;;18.22;55.79
21547;BME280;41275;51.912;4.388;2023-03-22T18:04:40;100345.38;;;18.27;55.81
21547;BME280;41275;51.912;4.388;2023-03-22T18:10:01;100319.47;;;18.22;55.83
21547;BME280;41275;51.912;4.388;2023-03-22T18:15:27;100318.75;;;18.17;55.51
21547;BME280;41275;51.912;4.388;2023-03-22T18:20:50;100332.72;;;18.13;55.49
21547;BME280;41275;51.912;4.388;2023-03-22T18:26:12;100316.13;;;18.11;55.57
21547;BME280;41275;51.912;4.388;2023-03-22T18:31:33;100325.56;;;18.09;55.75
21547;BME280;41275;51.912;4.388;2023-03-22T18:36:54;100315.41;;;18.06;55.85
21547;BME280;41275;51.912;4.388;2023-03-22T18:42:16;100320.75;;;18.06;55.34
21547;BME280;41275;51.912;4.388;2023-03-22T18:47:38;100314.03;;;18.08;55.89
21547;BME280;41275;51.912;4.388;2023-03-22T18:52:59;100310.75;;;18.11;55.91
21547;BME280;41275;51.912;4.388;2023-03-22T18:58:21;100294.91;;;18.15;55.81
21547;BME280;41275;51.912;4.388;2023-03-22T19:03:42;100300.56;;;18.13;55.77
21547;BME280;41275;51.912;4.388;2023-03-22T19:09:03;100282.84;;;18.18;55.73
21547;BME280;41275;51.912;4.388;2023-03-22T19:14:25;100287.63;;;18.21;55.72
21547;BME280;41275;51.912;4.388;2023-03-22T19:19:46;100293.13;;;18.29;55.73
21547;BME280;41275;51.912;4.388;2023-03-22T19:25:07;100284.44;;;18.37;55.52
21547;BME280;41275;51.912;4.388;2023-03-22T19:30:28;100287.31;;;18.41;55.14
21547;BME280;41275;51.912;4.388;2023-03-22T19:35:51;100295.66;;;18.39;54.88
21547;BME280;41275;51.912;4.388;2023-03-22T19:41:12;100304.97;;;18.42;54.78
21547;BME280;41275;51.912;4.388;2023-03-22T19:46:33;100278.91;;;18.48;54.53
21547;BME280;41275;51.912;4.388;2023-03-22T19:51:55;100282.97;;;18.45;54.29
21547;BME280;41275;51.912;4.388;2023-03-22T19:57:19;100290.34;;;18.53;53.70
21547;BME280;41275;51.912;4.388;2023-03-22T20:02:41;100295.69;;;18.53;53.80
21547;BME280;41275;51.912;4.388;2023-03-22T20:08:02;100257.63;;;18.56;53.69
21547;BME280;41275;51.912;4.388;2023-03-22T20:13:24;100257.53;;;18.61;53.30
21547;BME280;41275;51.912;4.388;2023-03-22T20:18:45;100235.59;;;18.59;53.20
21547;BME280;41275;51.912;4.388;2023-03-22T20:24:07;100240.66;;;18.61;53.09
21547;BME280;41275;51.912;4.388;2023-03-22T20:29:29;100237.97;;;18.61;52.97
21547;BME280;41275;51.912;4.388;2023-03-22T20:34:50;100230.03;;;18.56;53.39
21547;BME280;41275;51.912;4.388;2023-03-22T20:40:11;100234.28;;;18.57;53.13
21547;BME280;41275;51.912;4.388;2023-03-22T20:45:33;100234.28;;;18.57;53.08
21547;BME280;41275;51.912;4.388;2023-03-22T20:50:54;100225.34;;;18.61;53.14
21547;BME280;41275;51.912;4.388;2023-03-22T20:56:15;100216.22;;;18.62;53.02
21547;BME280;41275;51.912;4.388;2023-03-22T21:01:37;100221.59;;;18.62;53.04
21547;BME280;41275;51.912;4.388;2023-03-22T21:06:58;100222.41;;;18.63;52.98
21547;BME280;41275;51.912;4.388;2023-03-22T21:12:20;100216.44;;;18.66;52.69
21547;BME280;41275;51.912;4.388;2023-03-22T21:17:41;100204.44;;;18.63;52.85
21547;BME280;41275;51.912;4.388;2023-03-22T21:23:02;100197.97;;;18.64;52.66
21547;BME280;41275;51.912;4.388;2023-03-22T21:28:25;100198.78;;;18.65;53.03
21547;BME280;41275;51.912;4.388;2023-03-22T21:33:47;100189.03;;;18.69;52.65
21547;BME280;41275;51.912;4.388;2023-03-22T21:39:08;100199.69;;;18.74;52.64
21547;BME280;41275;51.912;4.388;2023-03-22T21:44:30;100199.06;;;18.63;52.10
21547;BME280;41275;51.912;4.388;2023-03-22T21:49:52;100198.44;;;18.53;52.31
21547;BME280;41275;51.912;4.388;2023-03-22T21:55:13;100196.78;;;18.57;53.02
21547;BME280;41275;51.912;4.388;2023-03-22T22:00:35;100180.00;;;18.65;53.05
21547;BME280;41275;51.912;4.388;2023-03-22T22:05:57;100182.25;;;18.77;52.86
21547;BME280;41275;51.912;4.388;2023-03-22T22:11:18;100172.41;;;18.86;52.37
21547;BME280;41275;51.912;4.388;2023-03-22T22:16:40;100155.25;;;18.87;51.85
21547;BME280;41275;51.912;4.388;2023-03-22T22:22:02;100171.53;;;18.91;51.73
21547;BME280;41275;51.912;4.388;2023-03-22T22:27:24;100180.28;;;18.96;51.60
21547;BME280;41275;51.912;4.388;2023-03-22T22:32:45;100182.75;;;19.06;50.93
21547;BME280;41275;51.912;4.388;2023-03-22T22:38:07;100171.34;;;19.15;50.63
21547;BME280;41275;51.912;4.388;2023-03-22T22:43:28;100159.00;;;19.13;50.41
21547;BME280;41275;51.912;4.388;2023-03-22T22:48:50;100161.59;;;19.19;50.24
21547;BME280;41275;51.912;4.388;2023-03-22T22:54:11;100151.66;;;19.19;50.16
21547;BME280;41275;51.912;4.388;2023-03-22T22:59:32;100135.75;;;19.23;50.17
21547;BME280;41275;51.912;4.388;2023-03-22T23:04:54;100149.97;;;19.23;49.73
21547;BME280;41275;51.912;4.388;2023-03-22T23:10:15;100148.84;;;19.24;49.63
21547;BME280;41275;51.912;4.388;2023-03-22T23:15:41;100142.91;;;19.27;49.63
21547;BME280;41275;51.912;4.388;2023-03-22T23:21:07;100128.38;;;19.28;49.31
21547;BME280;41275;51.912;4.388;2023-03-22T23:26:30;100126.03;;;19.27;49.17
21547;BME280;41275;51.912;4.388;2023-03-22T23:31:52;100138.53;;;19.31;48.92
21547;BME280;41275;51.912;4.388;2023-03-22T23:37:13;100124.78;;;19.33;48.79
21547;BME280;41275;51.912;4.388;2023-03-22T23:42:36;100114.84;;;19.33;48.70
21547;BME280;41275;51.912;4.388;2023-03-22T23:47:58;100107.72;;;19.29;48.64
21547;BME280;41275;51.912;4.388;2023-03-22T23:53:19;100096.63;;;19.22;48.55
21547;BME280;41275;51.912;4.388;2023-03-22T23:58:41;100088.47;;;19.27;48.64
